sensor_id;sensor_type;location;lat;lon;timestamp;pressure;altitude;pressure_sealevel;temperature;humidity
42111;BME280;27766;52.174;5.456;2023-06-14T00:01:51;101488.59;;;19.34;nan
42111;BME280;27766;52.174;5.456;2023-06-14T00:04:19;101493.78;;;19.37;nan
42111;BME280;27766;52.174;5.456;2023-06-14T00:06:47;101496.41;;;19.37;nan
42111;BME280;27766;52.174;5.456;2023-06-14T00:09:17;101505.22;;;19.33;nan
42111;BME280;27766;52.174;5.456;2023-06-14T00:11:45;101499.97;;;19.33;nan
42111;BME280;27766;52.174;5.456;2023-06-14T00:14:12;101499.97;;;19.29;nan
42111;BME280;27766;52.174;5.456;2023-06-14T00:16:41;101498.25;;;19.30;nan
42111;BME280;27766;52.174;5.456;2023-06-14T00:19:09;101500.84;;;19.32;nan
42111;BME280;27766;52.174;5.456;2023-06-14T00:21:38;101498.25;;;19.27;nan
42111;BME280;27766;52.174;5.456;2023-06-14T00:24:05;101498.28;;;19.25;nan
42111;BME280;27766;52.174;5.456;2023-06-14T00:26:33;101500.03;;;19.23;nan
42111;BME280;27766;52.174;5.456;2023-06-14T00:29:00;101505.28;;;19.26;nan
42111;BME280;27766;52.174;5.456;2023-06-14T00:31:27;101504.41;;;19.24;nan
42111;BME280;27766;52.174;5.456;2023-06-14T00:33:55;101499.19;;;19.20;nan
42111;BME280;27766;52.174;5.456;2023-06-14T00:36:22;101500.00;;;19.25;nan
42111;BME280;27766;52.174;5.456;2023-06-14T00:38:49;101503.53;;;19.25;nan
42111;BME280;27766;52.174;5.456;2023-06-14T00:41:17;101500.88;;;19.24;nan
42111;BME280;27766;52.174;5.456;2023-06-14T00:43:44;101500.94;;;19.19;nan
42111;BME280;27766;52.174;5.456;2023-06-14T00:46:11;101500.09;;;19.16;nan
42111;BME280;27766;52.174;5.456;2023-06-14T00:48:39;101499.22;;;19.13;nan
42111;BME280;27766;52.174;5.456;2023-06-14T00:51:07;101502.75;;;19.11;nan
42111;BME280;27766;52.174;5.456;2023-06-14T00:53:34;101497.53;;;19.06;nan
42111;BME280;27766;52.174;5.456;2023-06-14T00:56:03;101504.53;;;19.06;nan
42111;BME280;27766;52.174;5.456;2023-06-14T00:58:31;101490.59;;;18.96;nan
42111;BME280;27766;52.174;5.456;2023-06-14T01:00:59;101500.19;;;18.98;nan
42111;BME280;27766;52.174;5.456;2023-06-14T01:03:27;101502.84;;;18.88;nan
42111;BME280;27766;52.174;5.456;2023-06-14T01:06:24;101507.22;;;18.90;nan
42111;BME280;27766;52.174;5.456;2023-06-14T01:12:11;101507.28;;;18.79;nan
42111;BME280;27766;52.174;5.456;2023-06-14T01:14:41;101504.66;;;18.78;nan
42111;BME280;27766;52.174;5.456;2023-06-14T01:17:08;101508.16;;;18.80;nan
42111;BME280;27766;52.174;5.456;2023-06-14T01:19:44;101504.69;;;18.73;nan
42111;BME280;27766;52.174;5.456;2023-06-14T01:22:12;101488.09;;;18.70;nan
42111;BME280;27766;52.174;5.456;2023-06-14T01:24:40;101499.50;;;18.64;nan
42111;BME280;27766;52.174;5.456;2023-06-14T01:27:12;101497.75;;;18.66;nan
42111;BME280;27766;52.174;5.456;2023-06-14T01:29:40;101498.63;;;18.60;nan
42111;BME280;27766;52.174;5.456;2023-06-14T01:32:13;101497.78;;;18.57;nan
42111;BME280;27766;52.174;5.456;2023-06-14T01:34:41;101500.44;;;18.50;nan
42111;BME280;27766;52.174;5.456;2023-06-14T01:37:10;101503.06;;;18.49;nan
42111;BME280;27766;52.174;5.456;2023-06-14T01:39:39;101495.25;;;18.43;nan
42111;BME280;27766;52.174;5.456;2023-06-14T01:42:07;101497.84;;;18.44;nan
42111;BME280;27766;52.174;5.456;2023-06-14T01:44:35;101497.00;;;18.41;nan
42111;BME280;27766;52.174;5.456;2023-06-14T01:47:02;101504.84;;;18.41;nan
42111;BME280;27766;52.174;5.456;2023-06-14T01:49:33;101503.13;;;18.33;nan
42111;BME280;27766;52.174;5.456;2023-06-14T01:52:01;101506.63;;;18.31;nan
42111;BME280;27766;52.174;5.456;2023-06-14T01:54:28;101498.78;;;18.26;nan
42111;BME280;27766;52.174;5.456;2023-06-14T01:56:57;101504.91;;;18.24;nan
42111;BME280;27766;52.174;5.456;2023-06-14T01:59:24;101498.81;;;18.18;nan
42111;BME280;27766;52.174;5.456;2023-06-14T02:01:52;101504.94;;;18.14;nan
42111;BME280;27766;52.174;5.456;2023-06-14T02:04:19;101494.50;;;18.03;nan
42111;BME280;27766;52.174;5.456;2023-06-14T02:06:47;101497.09;;;18.07;nan
42111;BME280;27766;52.174;5.456;2023-06-14T02:09:14;101506.69;;;18.03;nan
42111;BME280;27766;52.174;5.456;2023-06-14T02:11:42;101501.47;;;17.98;nan
42111;BME280;27766;52.174;5.456;2023-06-14T02:14:09;101503.19;;;17.95;nan
42111;BME280;27766;52.174;5.456;2023-06-14T02:16:39;101497.09;;;17.93;nan
42111;BME280;27766;52.174;5.456;2023-06-14T02:19:06;101497.97;;;17.88;nan
42111;BME280;27766;52.174;5.456;2023-06-14T02:21:33;101499.72;;;17.90;nan
42111;BME280;27766;52.174;5.456;2023-06-14T02:24:01;101498.00;;;17.82;nan
42111;BME280;27766;52.174;5.456;2023-06-14T02:26:28;101504.09;;;17.77;nan
42111;BME280;27766;52.174;5.456;2023-06-14T02:28:56;101502.34;;;17.71;nan
42111;BME280;27766;52.174;5.456;2023-06-14T02:31:23;101506.75;;;17.69;nan
42111;BME280;27766;52.174;5.456;2023-06-14T02:33:50;101508.47;;;17.67;nan
42111;BME280;27766;52.174;5.456;2023-06-14T02:36:17;101507.59;;;17.63;nan
42111;BME280;27766;52.174;5.456;2023-06-14T02:38:45;101509.34;;;17.61;nan
42111;BME280;27766;52.174;5.456;2023-06-14T02:41:13;101510.22;;;17.60;nan
42111;BME280;27766;52.174;5.456;2023-06-14T02:43:41;101511.09;;;17.59;nan
42111;BME280;27766;52.174;5.456;2023-06-14T02:46:09;101507.63;;;17.51;nan
42111;BME280;27766;52.174;5.456;2023-06-14T02:48:36;101507.63;;;17.51;nan
42111;BME280;27766;52.174;5.456;2023-06-14T02:51:03;101511.97;;;17.47;nan
42111;BME280;27766;52.174;5.456;2023-06-14T02:53:31;101512.84;;;17.45;nan
42111;BME280;27766;52.174;5.456;2023-06-14T02:55:58;101509.38;;;17.43;nan
42111;BME280;27766;52.174;5.456;2023-06-14T02:58:26;101509.34;;;17.39;nan
42111;BME280;27766;52.174;5.456;2023-06-14T03:00:54;101516.34;;;17.36;nan
42111;BME280;27766;52.174;5.456;2023-06-14T03:03:22;101524.16;;;17.33;nan
42111;BME280;27766;52.174;5.456;2023-06-14T03:05:52;101524.19;;;17.25;nan
42111;BME280;27766;52.174;5.456;2023-06-14T03:08:19;101525.91;;;17.15;nan
42111;BME280;27766;52.174;5.456;2023-06-14T03:10:46;101529.38;;;17.09;nan
42111;BME280;27766;52.174;5.456;2023-06-14T03:13:17;101526.72;;;17.02;nan
42111;BME280;27766;52.174;5.456;2023-06-14T03:15:44;101535.47;;;16.98;nan
42111;BME280;27766;52.174;5.456;2023-06-14T03:18:12;101545.91;;;16.93;nan
42111;BME280;27766;52.174;5.456;2023-06-14T03:20:39;101532.78;;;16.87;nan
42111;BME280;27766;52.174;5.456;2023-06-14T03:23:06;101531.03;;;16.80;nan
42111;BME280;27766;52.174;5.456;2023-06-14T03:25:34;101538.00;;;16.81;nan
42111;BME280;27766;52.174;5.456;2023-06-14T03:28:02;101544.09;;;16.80;nan
42111;BME280;27766;52.174;5.456;2023-06-14T03:30:30;101546.69;;;16.80;nan
42111;BME280;27766;52.174;5.456;2023-06-14T03:32:58;101546.69;;;16.80;nan
42111;BME280;27766;52.174;5.456;2023-06-14T03:35:28;101549.28;;;16.76;nan
42111;BME280;27766;52.174;5.456;2023-06-14T03:37:56;101552.78;;;16.72;nan
42111;BME280;27766;52.174;5.456;2023-06-14T03:40:23;101555.38;;;16.69;nan
42111;BME280;27766;52.174;5.456;2023-06-14T03:42:55;101546.63;;;16.67;nan
42111;BME280;27766;52.174;5.456;2023-06-14T03:45:23;101551.88;;;16.69;nan
42111;BME280;27766;52.174;5.456;2023-06-14T03:47:50;101559.69;;;16.67;nan
42111;BME280;27766;52.174;5.456;2023-06-14T03:50:18;101550.97;;;16.62;nan
42111;BME280;27766;52.174;5.456;2023-06-14T03:52:48;101555.34;;;16.61;nan
42111;BME280;27766;52.174;5.456;2023-06-14T03:55:16;101557.94;;;16.57;nan
42111;BME280;27766;52.174;5.456;2023-06-14T03:57:46;101558.78;;;16.57;nan
42111;BME280;27766;52.174;5.456;2023-06-14T04:00:13;101559.66;;;16.55;nan
42111;BME280;27766;52.174;5.456;2023-06-14T04:02:42;101562.28;;;16.56;nan
42111;BME280;27766;52.174;5.456;2023-06-14T04:05:11;101566.63;;;16.59;nan
42111;BME280;27766;52.174;5.456;2023-06-14T04:07:39;101564.03;;;16.57;nan
42111;BME280;27766;52.174;5.456;2023-06-14T04:10:12;101572.75;;;16.61;nan
42111;BME280;27766;52.174;5.456;2023-06-14T04:12:40;101574.47;;;16.57;nan
42111;BME280;27766;52.174;5.456;2023-06-14T04:15:10;101585.81;;;16.61;nan
42111;BME280;27766;52.174;5.456;2023-06-14T04:17:47;101589.28;;;16.60;nan
42111;BME280;27766;52.174;5.456;2023-06-14T04:20:14;101591.03;;;16.61;nan
42111;BME280;27766;52.174;5.456;2023-06-14T04:22:42;101592.78;;;16.62;nan
42111;BME280;27766;52.174;5.456;2023-06-14T04:25:10;101585.84;;;16.66;nan
42111;BME280;27766;52.174;5.456;2023-06-14T04:27:42;101589.31;;;16.63;nan
42111;BME280;27766;52.174;5.456;2023-06-14T04:30:09;101584.09;;;16.63;nan
42111;BME280;27766;52.174;5.456;2023-06-14T04:32:37;101584.13;;;16.69;nan
42111;BME280;27766;52.174;5.456;2023-06-14T04:35:07;101588.47;;;16.70;nan
42111;BME280;27766;52.174;5.456;2023-06-14T04:37:35;101585.00;;;16.73;nan
42111;BME280;27766;52.174;5.456;2023-06-14T04:40:07;101588.50;;;16.73;nan
42111;BME280;27766;52.174;5.456;2023-06-14T04:42:38;101592.88;;;16.81;nan
42111;BME280;27766;52.174;5.456;2023-06-14T04:45:08;101594.63;;;16.85;nan
42111;BME280;27766;52.174;5.456;2023-06-14T04:47:36;101598.97;;;16.83;nan
42111;BME280;27766;52.174;5.456;2023-06-14T04:50:05;101604.22;;;16.87;nan
42111;BME280;27766;52.174;5.456;2023-06-14T04:52:32;101600.78;;;16.91;nan
42111;BME280;27766;52.174;5.456;2023-06-14T04:55:00;101604.28;;;16.98;nan
42111;BME280;27766;52.174;5.456;2023-06-14T04:57:27;101604.31;;;17.01;nan
42111;BME280;27766;52.174;5.456;2023-06-14T04:59:54;101602.56;;;17.02;nan
42111;BME280;27766;52.174;5.456;2023-06-14T05:02:23;101599.97;;;17.06;nan
42111;BME280;27766;52.174;5.456;2023-06-14T05:04:51;101610.47;;;17.16;nan
42111;BME280;27766;52.174;5.456;2023-06-14T05:07:19;101611.34;;;17.21;nan
42111;BME280;27766;52.174;5.456;2023-06-14T05:09:47;101607.00;;;17.28;nan
42111;BME280;27766;52.174;5.456;2023-06-14T05:12:14;101614.84;;;17.29;nan
42111;BME280;27766;52.174;5.456;2023-06-14T05:14:45;101616.63;;;17.35;nan
42111;BME280;27766;52.174;5.456;2023-06-14T05:17:12;101607.00;;;17.29;nan
42111;BME280;27766;52.174;5.456;2023-06-14T05:19:40;101620.13;;;17.35;nan
42111;BME280;27766;52.174;5.456;2023-06-14T05:22:09;101621.00;;;17.44;nan
42111;BME280;27766;52.174;5.456;2023-06-14T05:24:36;101618.38;;;17.47;nan
42111;BME280;27766;52.174;5.456;2023-06-14T05:27:03;101624.50;;;17.52;nan
42111;BME280;27766;52.174;5.456;2023-06-14T05:29:31;101621.00;;;17.59;nan
42111;BME280;27766;52.174;5.456;2023-06-14T05:31:59;101618.44;;;17.65;nan
42111;BME280;27766;52.174;5.456;2023-06-14T05:34:27;101619.28;;;17.70;nan
42111;BME280;27766;52.174;5.456;2023-06-14T05:36:54;101611.44;;;17.75;nan
42111;BME280;27766;52.174;5.456;2023-06-14T05:39:22;101621.91;;;17.86;nan
42111;BME280;27766;52.174;5.456;2023-06-14T05:41:51;101620.19;;;17.94;nan
42111;BME280;27766;52.174;5.456;2023-06-14T05:44:18;101628.03;;;18.02;nan
42111;BME280;27766;52.174;5.456;2023-06-14T05:46:45;101631.56;;;18.12;nan
42111;BME280;27766;52.174;5.456;2023-06-14T05:49:13;101629.78;;;18.17;nan
42111;BME280;27766;52.174;5.456;2023-06-14T05:51:40;101628.03;;;18.25;nan
42111;BME280;27766;52.174;5.456;2023-06-14T05:54:07;101633.28;;;18.31;nan
42111;BME280;27766;52.174;5.456;2023-06-14T05:56:35;101631.50;;;18.40;nan
42111;BME280;27766;52.174;5.456;2023-06-14T05:59:02;101635.88;;;18.45;nan
42111;BME280;27766;52.174;5.456;2023-06-14T06:01:30;101645.47;;;18.57;nan
42111;BME280;27766;52.174;5.456;2023-06-14T06:03:57;101639.31;;;18.63;nan
42111;BME280;27766;52.174;5.456;2023-06-14T06:06:25;101641.03;;;18.69;nan
42111;BME280;27766;52.174;5.456;2023-06-14T06:08:52;101640.13;;;18.77;nan
42111;BME280;27766;52.174;5.456;2023-06-14T06:11:19;101647.09;;;18.91;nan
42111;BME280;27766;52.174;5.456;2023-06-14T06:13:47;101654.94;;;19.02;nan
42111;BME280;27766;52.174;5.456;2023-06-14T06:16:14;101647.94;;;19.10;nan
42111;BME280;27766;52.174;5.456;2023-06-14T06:18:42;101649.59;;;19.23;nan
42111;BME280;27766;52.174;5.456;2023-06-14T06:21:11;101652.13;;;19.40;nan
42111;BME280;27766;52.174;5.456;2023-06-14T06:23:39;101662.50;;;19.60;nan
42111;BME280;27766;52.174;5.456;2023-06-14T06:26:07;101653.63;;;19.77;nan
42111;BME280;27766;52.174;5.456;2023-06-14T06:28:34;101647.44;;;19.90;nan
42111;BME280;27766;52.174;5.456;2023-06-14T06:31:01;101660.44;;;20.06;nan
42111;BME280;27766;52.174;5.456;2023-06-14T06:33:31;101652.47;;;20.15;nan
42111;BME280;27766;52.174;5.456;2023-06-14T06:35:58;101653.19;;;20.31;nan
42111;BME280;27766;52.174;5.456;2023-06-14T06:38:25;101661.78;;;20.50;nan
42111;BME280;27766;52.174;5.456;2023-06-14T06:40:53;101662.47;;;20.68;nan
42111;BME280;27766;52.174;5.456;2023-06-14T06:43:21;101677.22;;;20.87;nan
42111;BME280;27766;52.174;5.456;2023-06-14T06:45:48;101670.06;;;20.97;nan
42111;BME280;27766;52.174;5.456;2023-06-14T06:48:16;101673.44;;;21.07;nan
42111;BME280;27766;52.174;5.456;2023-06-14T06:50:43;101667.19;;;21.16;nan
42111;BME280;27766;52.174;5.456;2023-06-14T06:53:11;101676.63;;;21.34;nan
42111;BME280;27766;52.174;5.456;2023-06-14T06:55:41;101675.47;;;21.50;nan
42111;BME280;27766;52.174;5.456;2023-06-14T06:58:08;101672.72;;;21.63;nan
42111;BME280;27766;52.174;5.456;2023-06-14T07:00:36;101674.19;;;21.81;nan
42111;BME280;27766;52.174;5.456;2023-06-14T07:03:03;101683.59;;;21.96;nan
42111;BME280;27766;52.174;5.456;2023-06-14T07:05:31;101679.09;;;22.04;nan
42111;BME280;27766;52.174;5.456;2023-06-14T07:07:59;101687.63;;;22.19;nan
42111;BME280;27766;52.174;5.456;2023-06-14T07:10:27;101688.34;;;22.28;nan
42111;BME280;27766;52.174;5.456;2023-06-14T07:12:54;101681.19;;;22.37;nan
42111;BME280;27766;52.174;5.456;2023-06-14T07:15:21;101683.66;;;22.48;nan
42111;BME280;27766;52.174;5.456;2023-06-14T07:17:49;101685.19;;;22.58;nan
42111;BME280;27766;52.174;5.456;2023-06-14T07:20:17;101683.50;;;22.55;nan
42111;BME280;27766;52.174;5.456;2023-06-14T07:22:45;101681.63;;;22.62;nan
42111;BME280;27766;52.174;5.456;2023-06-14T07:25:12;101691.13;;;22.71;nan
42111;BME280;27766;52.174;5.456;2023-06-14T07:27:44;101696.19;;;22.82;nan
42111;BME280;27766;52.174;5.456;2023-06-14T07:30:12;101692.53;;;22.89;nan
42111;BME280;27766;52.174;5.456;2023-06-14T07:32:39;101696.72;;;22.99;nan
42111;BME280;27766;52.174;5.456;2023-06-14T07:35:07;101706.31;;;23.03;nan
42111;BME280;27766;52.174;5.456;2023-06-14T07:37:35;101696.47;;;23.12;nan
42111;BME280;27766;52.174;5.456;2023-06-14T07:40:03;101701.59;;;23.21;nan
42111;BME280;27766;52.174;5.456;2023-06-14T07:42:34;101696.00;;;23.35;nan
42111;BME280;27766;52.174;5.456;2023-06-14T07:45:03;101702.66;;;23.53;nan
42111;BME280;27766;52.174;5.456;2023-06-14T07:47:32;101711.19;;;23.64;nan
42111;BME280;27766;52.174;5.456;2023-06-14T07:49:59;101708.22;;;23.78;nan
42111;BME280;27766;52.174;5.456;2023-06-14T07:52:29;101710.53;;;23.94;nan
42111;BME280;27766;52.174;5.456;2023-06-14T07:54:57;101715.34;;;24.14;nan
42111;BME280;27766;52.174;5.456;2023-06-14T07:57:25;101710.13;;;24.11;nan
42111;BME280;27766;52.174;5.456;2023-06-14T07:59:52;101722.53;;;24.07;nan
42111;BME280;27766;52.174;5.456;2023-06-14T08:02:19;101712.75;;;24.11;nan
42111;BME280;27766;52.174;5.456;2023-06-14T08:04:47;101719.78;;;24.12;nan
42111;BME280;27766;52.174;5.456;2023-06-14T08:07:15;101720.41;;;24.23;nan
42111;BME280;27766;52.174;5.456;2023-06-14T08:09:42;101713.13;;;24.31;nan
42111;BME280;27766;52.174;5.456;2023-06-14T08:12:10;101716.63;;;24.32;nan
42111;BME280;27766;52.174;5.456;2023-06-14T08:14:39;101708.09;;;24.22;nan
42111;BME280;27766;52.174;5.456;2023-06-14T08:17:07;101723.66;;;24.33;nan
42111;BME280;27766;52.174;5.456;2023-06-14T08:19:35;101719.56;;;24.21;nan
42111;BME280;27766;52.174;5.456;2023-06-14T08:22:02;101721.75;;;24.40;nan
42111;BME280;27766;52.174;5.456;2023-06-14T08:24:30;101721.66;;;24.43;nan
42111;BME280;27766;52.174;5.456;2023-06-14T08:26:58;101712.63;;;24.52;nan
42111;BME280;27766;52.174;5.456;2023-06-14T08:29:28;101715.09;;;24.58;nan
42111;BME280;27766;52.174;5.456;2023-06-14T08:31:59;101713.75;;;24.76;nan
42111;BME280;27766;52.174;5.456;2023-06-14T08:34:27;101716.41;;;24.76;nan
42111;BME280;27766;52.174;5.456;2023-06-14T08:36:54;101709.44;;;24.72;nan
42111;BME280;27766;52.174;5.456;2023-06-14T08:39:22;101705.81;;;24.76;nan
42111;BME280;27766;52.174;5.456;2023-06-14T08:41:49;101712.63;;;24.85;nan
42111;BME280;27766;52.174;5.456;2023-06-14T08:44:18;101719.31;;;24.98;nan
42111;BME280;27766;52.174;5.456;2023-06-14T08:46:47;101727.09;;;25.03;nan
42111;BME280;27766;52.174;5.456;2023-06-14T08:49:16;101710.56;;;24.94;nan
42111;BME280;27766;52.174;5.456;2023-06-14T08:51:44;101704.00;;;24.78;nan
42111;BME280;27766;52.174;5.456;2023-06-14T08:54:15;101718.50;;;24.94;nan
42111;BME280;27766;52.174;5.456;2023-06-14T08:56:42;101704.72;;;24.83;nan
42111;BME280;27766;52.174;5.456;2023-06-14T08:59:11;101713.13;;;24.97;nan
42111;BME280;27766;52.174;5.456;2023-06-14T09:01:39;101715.59;;;25.05;nan
42111;BME280;27766;52.174;5.456;2023-06-14T09:04:12;101712.19;;;25.00;nan
42111;BME280;27766;52.174;5.456;2023-06-14T09:06:40;101715.59;;;25.04;nan
42111;BME280;27766;52.174;5.456;2023-06-14T09:09:08;101722.31;;;25.17;nan
42111;BME280;27766;52.174;5.456;2023-06-14T09:11:36;101717.28;;;25.08;nan
42111;BME280;27766;52.174;5.456;2023-06-14T09:14:03;101721.50;;;25.13;nan
42111;BME280;27766;52.174;5.456;2023-06-14T09:16:32;101720.81;;;25.38;nan
42111;BME280;27766;52.174;5.456;2023-06-14T09:19:00;101723.88;;;25.54;nan
42111;BME280;27766;52.174;5.456;2023-06-14T09:21:27;101722.63;;;25.65;nan
42111;BME280;27766;52.174;5.456;2023-06-14T09:23:59;101722.00;;;25.58;nan
42111;BME280;27766;52.174;5.456;2023-06-14T09:26:27;101723.75;;;25.57;nan
42111;BME280;27766;52.174;5.456;2023-06-14T09:28:55;101729.47;;;25.72;nan
42111;BME280;27766;52.174;5.456;2023-06-14T09:31:22;101722.47;;;25.71;nan
42111;BME280;27766;52.174;5.456;2023-06-14T09:33:50;101726.66;;;25.78;nan
42111;BME280;27766;52.174;5.456;2023-06-14T09:36:22;101725.41;;;25.90;nan
42111;BME280;27766;52.174;5.456;2023-06-14T09:41:20;101725.41;;;25.90;nan
42111;BME280;27766;52.174;5.456;2023-06-14T09:43:48;101735.47;;;26.05;nan
42111;BME280;27766;52.174;5.456;2023-06-14T09:46:17;101730.13;;;26.09;nan
42111;BME280;27766;52.174;5.456;2023-06-14T09:48:45;101724.94;;;26.04;nan
42111;BME280;27766;52.174;5.456;2023-06-14T09:51:13;101723.25;;;26.01;nan
42111;BME280;27766;52.174;5.456;2023-06-14T09:53:42;101719.06;;;25.94;nan
42111;BME280;27766;52.174;5.456;2023-06-14T09:56:11;101726.00;;;25.98;nan
42111;BME280;27766;52.174;5.456;2023-06-14T09:58:39;101710.84;;;26.02;nan
42111;BME280;27766;52.174;5.456;2023-06-14T10:01:09;101722.09;;;26.10;nan
42111;BME280;27766;52.174;5.456;2023-06-14T10:03:38;101713.31;;;26.35;nan
42111;BME280;27766;52.174;5.456;2023-06-14T10:06:28;101706.53;;;26.51;nan
42111;BME280;27766;52.174;5.456;2023-06-14T10:08:58;101715.00;;;26.63;nan
42111;BME280;27766;52.174;5.456;2023-06-14T10:11:27;101700.81;;;26.38;nan
42111;BME280;27766;52.174;5.456;2023-06-14T10:13:56;101693.28;;;26.51;nan
42111;BME280;27766;52.174;5.456;2023-06-14T10:19:13;101712.91;;;26.47;nan
42111;BME280;27766;52.174;5.456;2023-06-14T10:24:29;101712.00;;;26.21;nan
42111;BME280;27766;52.174;5.456;2023-06-14T10:26:58;101711.31;;;26.42;nan
42111;BME280;27766;52.174;5.456;2023-06-14T10:29:29;101713.31;;;26.35;nan
42111;BME280;27766;52.174;5.456;2023-06-14T10:32:00;101718.69;;;26.33;nan
42111;BME280;27766;52.174;5.456;2023-06-14T10:34:29;101711.56;;;26.59;nan
42111;BME280;27766;52.174;5.456;2023-06-14T10:37:01;101713.13;;;26.66;nan
42111;BME280;27766;52.174;5.456;2023-06-14T10:39:38;101699.75;;;26.93;nan
42111;BME280;27766;52.174;5.456;2023-06-14T10:42:08;101704.00;;;26.74;nan
42111;BME280;27766;52.174;5.456;2023-06-14T10:44:45;101710.16;;;26.74;nan
42111;BME280;27766;52.174;5.456;2023-06-14T10:47:32;101713.91;;;26.43;nan
42111;BME280;27766;52.174;5.456;2023-06-14T10:52:29;101718.16;;;26.49;nan
42111;BME280;27766;52.174;5.456;2023-06-14T10:55:11;101705.03;;;26.44;nan
42111;BME280;27766;52.174;5.456;2023-06-14T10:57:44;101710.06;;;26.52;nan
42111;BME280;27766;52.174;5.456;2023-06-14T11:00:20;101712.44;;;26.60;nan
42111;BME280;27766;52.174;5.456;2023-06-14T11:11:07;101710.22;;;26.98;nan
42111;BME280;27766;52.174;5.456;2023-06-14T11:13:41;101696.28;;;27.15;nan
42111;BME280;27766;52.174;5.456;2023-06-14T11:16:13;101704.59;;;27.29;nan
42111;BME280;27766;52.174;5.456;2023-06-14T11:18:42;101701.34;;;27.21;nan
42111;BME280;27766;52.174;5.456;2023-06-14T11:21:15;101701.50;;;27.18;nan
42111;BME280;27766;52.174;5.456;2023-06-14T11:23:51;101691.56;;;26.74;nan
42111;BME280;27766;52.174;5.456;2023-06-14T11:26:30;101696.28;;;27.15;nan
42111;BME280;27766;52.174;5.456;2023-06-14T11:28:59;101697.59;;;27.51;nan
42111;BME280;27766;52.174;5.456;2023-06-14T11:31:27;101694.25;;;27.90;nan
42111;BME280;27766;52.174;5.456;2023-06-14T11:33:56;101690.06;;;28.27;nan
42111;BME280;27766;52.174;5.456;2023-06-14T11:36:30;101691.38;;;28.17;nan
42111;BME280;27766;52.174;5.456;2023-06-14T11:39:03;101697.44;;;28.41;nan
42111;BME280;27766;52.174;5.456;2023-06-14T11:41:44;101691.88;;;28.87;nan
42111;BME280;27766;52.174;5.456;2023-06-14T11:44:12;101689.94;;;29.10;nan
42111;BME280;27766;52.174;5.456;2023-06-14T11:46:39;101680.66;;;28.80;nan
42111;BME280;27766;52.174;5.456;2023-06-14T11:49:07;101689.06;;;29.28;nan
42111;BME280;27766;52.174;5.456;2023-06-14T11:51:37;101680.47;;;29.96;nan
42111;BME280;27766;52.174;5.456;2023-06-14T11:54:06;101677.63;;;30.17;nan
42111;BME280;27766;52.174;5.456;2023-06-14T11:56:34;101681.09;;;30.19;nan
42111;BME280;27766;52.174;5.456;2023-06-14T11:59:05;101685.28;;;30.76;nan
42111;BME280;27766;52.174;5.456;2023-06-14T12:01:36;101682.75;;;30.73;nan
42111;BME280;27766;52.174;5.456;2023-06-14T12:04:04;101687.81;;;30.95;nan
42111;BME280;27766;52.174;5.456;2023-06-14T12:06:31;101686.13;;;30.92;nan
42111;BME280;27766;52.174;5.456;2023-06-14T12:09:07;101680.53;;;30.81;nan
42111;BME280;27766;52.174;5.456;2023-06-14T12:11:39;101678.34;;;30.56;nan
42111;BME280;27766;52.174;5.456;2023-06-14T12:14:08;101678.47;;;30.35;nan
42111;BME280;27766;52.174;5.456;2023-06-14T12:16:40;101683.97;;;30.50;nan
42111;BME280;27766;52.174;5.456;2023-06-14T12:19:16;101679.03;;;30.42;nan
42111;BME280;27766;52.174;5.456;2023-06-14T12:21:47;101682.88;;;30.87;nan
42111;BME280;27766;52.174;5.456;2023-06-14T12:24:18;101684.88;;;31.00;nan
42111;BME280;27766;52.174;5.456;2023-06-14T12:26:45;101697.28;;;31.01;nan
42111;BME280;27766;52.174;5.456;2023-06-14T12:29:14;101694.56;;;31.18;nan
42111;BME280;27766;52.174;5.456;2023-06-14T12:31:41;101693.56;;;30.87;nan
42111;BME280;27766;52.174;5.456;2023-06-14T12:34:09;101698.06;;;31.03;nan
42111;BME280;27766;52.174;5.456;2023-06-14T12:36:37;101683.63;;;31.23;nan
42111;BME280;27766;52.174;5.456;2023-06-14T12:39:12;101691.66;;;31.05;nan
42111;BME280;27766;52.174;5.456;2023-06-14T12:41:40;101685.69;;;30.68;nan
42111;BME280;27766;52.174;5.456;2023-06-14T12:44:10;101685.00;;;31.14;nan
42111;BME280;27766;52.174;5.456;2023-06-14T12:46:37;101677.97;;;30.79;nan
42111;BME280;27766;52.174;5.456;2023-06-14T12:49:11;101676.78;;;31.17;nan
42111;BME280;27766;52.174;5.456;2023-06-14T12:51:39;101679.09;;;32.02;nan
42111;BME280;27766;52.174;5.456;2023-06-14T12:54:07;101680.44;;;32.40;nan
42111;BME280;27766;52.174;5.456;2023-06-14T12:56:35;101681.50;;;32.51;nan
42111;BME280;27766;52.174;5.456;2023-06-14T12:59:02;101685.41;;;32.15;nan
42111;BME280;27766;52.174;5.456;2023-06-14T13:01:29;101677.97;;;31.60;nan
42111;BME280;27766;52.174;5.456;2023-06-14T13:03:57;101690.06;;;31.51;nan
42111;BME280;27766;52.174;5.456;2023-06-14T13:06:24;101688.34;;;31.66;nan
42111;BME280;27766;52.174;5.456;2023-06-14T13:08:52;101688.31;;;31.82;nan
42111;BME280;27766;52.174;5.456;2023-06-14T13:11:22;101694.41;;;32.45;nan
42111;BME280;27766;52.174;5.456;2023-06-14T13:13:49;101688.47;;;32.40;nan
42111;BME280;27766;52.174;5.456;2023-06-14T13:16:16;101691.25;;;32.53;nan
42111;BME280;27766;52.174;5.456;2023-06-14T13:18:43;101687.25;;;32.60;nan
42111;BME280;27766;52.174;5.456;2023-06-14T13:21:14;101695.44;;;33.00;nan
42111;BME280;27766;52.174;5.456;2023-06-14T13:23:41;101691.03;;;32.99;nan
42111;BME280;27766;52.174;5.456;2023-06-14T13:26:09;101695.06;;;33.21;nan
42111;BME280;27766;52.174;5.456;2023-06-14T13:28:37;101697.41;;;32.98;nan
42111;BME280;27766;52.174;5.456;2023-06-14T13:31:04;101707.63;;;33.48;nan
42111;BME280;27766;52.174;5.456;2023-06-14T13:33:32;101704.00;;;33.49;nan
42111;BME280;27766;52.174;5.456;2023-06-14T13:35:59;101695.81;;;33.37;nan
42111;BME280;27766;52.174;5.456;2023-06-14T13:38:26;101696.81;;;32.78;nan
42111;BME280;27766;52.174;5.456;2023-06-14T13:40:54;101697.09;;;33.03;nan